createdAt,value
2019-05-20T00:00:57.439Z,2.10
2019-05-20T00:03:25.214Z,1.87
2019-05-20T00:05:53.038Z,1.80
2019-05-20T00:08:20.858Z,2.10
2019-05-20T00:10:48.575Z,2.27
2019-05-20T00:13:16.212Z,2.17
2019-05-20T00:15:44.023Z,2.27
2019-05-20T00:18:12.736Z,2.53
2019-05-20T00:20:40.468Z,1.90
2019-05-20T00:23:08.201Z,2.60
2019-05-20T00:25:36.120Z,2.50
2019-05-20T00:28:03.920Z,2.30
2019-05-20T00:30:31.856Z,2.17
2019-05-20T00:32:59.654Z,2.47
2019-05-20T00:35:27.349Z,2.10
2019-05-20T00:37:55.093Z,2.07
2019-05-20T00:40:22.799Z,2.30
2019-05-20T00:42:50.620Z,2.30
2019-05-20T00:45:18.384Z,2.20
2019-05-20T00:47:46.161Z,2.53
2019-05-20T00:50:13.936Z,2.67
2019-05-20T00:52:41.612Z,2.70
2019-05-20T00:55:20.484Z,2.33
2019-05-20T00:57:48.215Z,2.60
2019-05-20T01:00:15.900Z,2.40
2019-05-20T01:02:56.081Z,2.33
2019-05-20T01:05:13.335Z,2.47
2019-05-20T01:07:40.992Z,2.30
2019-05-20T01:10:08.801Z,2.30
2019-05-20T01:12:36.675Z,2.30
2019-05-20T01:15:04.780Z,2.40
2019-05-20T01:17:33.533Z,2.27
2019-05-20T01:20:01.248Z,2.63
2019-05-20T01:22:29.018Z,2.67
2019-05-20T01:24:56.749Z,2.70
2019-05-20T01:27:24.465Z,2.90
2019-05-20T01:29:52.274Z,3.00
2019-05-20T01:32:19.949Z,2.53
2019-05-20T01:34:47.649Z,3.23
2019-05-20T01:37:15.323Z,2.80
2019-05-20T01:39:43.014Z,2.80
2019-05-20T01:42:11.728Z,3.20
2019-05-20T01:44:39.387Z,3.00
2019-05-20T01:47:08.126Z,2.93
2019-05-20T01:49:36.061Z,3.00
2019-05-20T01:52:04.273Z,3.10
2019-05-20T01:54:32.069Z,3.20
2019-05-20T01:56:59.764Z,2.70
2019-05-20T01:59:27.432Z,3.03
2019-05-20T02:01:55.142Z,3.03
2019-05-20T02:04:22.850Z,2.80
2019-05-20T02:06:50.798Z,3.20
2019-05-20T02:09:18.509Z,2.97
2019-05-20T02:11:46.175Z,3.00
2019-05-20T02:14:18.135Z,3.20
2019-05-20T02:16:45.857Z,3.43
2019-05-20T02:19:13.537Z,3.33
2019-05-20T02:21:43.180Z,3.40
2019-05-20T02:24:10.949Z,3.20
2019-05-20T02:26:38.620Z,3.43
2019-05-20T02:29:06.348Z,3.73
2019-05-20T02:31:34.181Z,3.63
2019-05-20T02:34:01.898Z,4.07
2019-05-20T02:36:29.586Z,4.10
2019-05-20T02:38:57.306Z,4.20
2019-05-20T02:41:25.560Z,4.30
2019-05-20T02:43:53.345Z,4.30
2019-05-20T02:46:21.043Z,4.90
2019-05-20T02:48:49.899Z,5.07
2019-05-20T02:51:30.189Z,4.90
2019-05-20T02:53:59.107Z,4.83
2019-05-20T02:56:26.800Z,5.23
2019-05-20T02:58:54.513Z,5.40
2019-05-20T03:01:22.280Z,5.47
2019-05-20T03:04:09.478Z,6.17
2019-05-20T03:06:19.710Z,5.83
2019-05-20T03:08:47.423Z,6.27
2019-05-20T03:11:15.155Z,6.07
2019-05-20T03:13:43.022Z,6.07
2019-05-20T03:16:10.720Z,6.87
2019-05-20T03:18:38.427Z,6.50
2019-05-20T03:21:06.137Z,6.60
2019-05-20T03:23:33.793Z,6.53
2019-05-20T03:26:01.504Z,6.30
2019-05-20T03:28:29.278Z,6.80
2019-05-20T03:30:56.973Z,7.30
2019-05-20T03:33:24.789Z,7.00
2019-05-20T03:35:52.457Z,7.47
2019-05-20T03:38:20.189Z,7.37
2019-05-20T03:40:47.892Z,7.50
2019-05-20T03:43:15.598Z,7.20
2019-05-20T03:45:43.297Z,7.93
2019-05-20T03:48:11.127Z,7.33
2019-05-20T03:50:38.835Z,8.00
2019-05-20T03:53:06.617Z,7.57
2019-05-20T03:55:34.350Z,7.53
2019-05-20T03:58:02.051Z,8.53
2019-05-20T04:00:41.523Z,8.40
2019-05-20T04:03:09.305Z,8.50
2019-05-20T04:05:37.360Z,8.57
2019-05-20T04:08:05.170Z,8.77
2019-05-20T04:10:33.945Z,8.40
2019-05-20T04:13:01.686Z,8.53
2019-05-20T04:15:29.419Z,9.30
2019-05-20T04:17:57.137Z,8.10
2019-05-20T04:20:26.000Z,8.57
2019-05-20T04:22:53.725Z,8.30
2019-05-20T04:25:21.429Z,8.90
2019-05-20T04:27:49.170Z,8.37
2019-05-20T04:30:19.041Z,7.93
2019-05-20T04:32:46.536Z,8.30
2019-05-20T04:35:22.343Z,8.93
2019-05-20T04:37:43.894Z,8.30
2019-05-20T04:40:11.921Z,8.43
2019-05-20T04:42:39.699Z,8.67
2019-05-20T04:45:08.670Z,9.30
2019-05-20T04:47:36.488Z,8.73
2019-05-20T04:50:04.637Z,9.20
2019-05-20T04:52:32.434Z,9.07
2019-05-20T04:55:00.584Z,8.50
2019-05-20T04:57:28.427Z,9.30
2019-05-20T04:59:56.216Z,9.13
2019-05-20T05:02:23.886Z,8.90
2019-05-20T05:04:51.566Z,9.00
2019-05-20T05:07:19.313Z,8.90
2019-05-20T05:09:47.018Z,8.93
2019-05-20T05:12:14.737Z,9.43
2019-05-20T05:14:42.589Z,8.47
2019-05-20T05:17:11.172Z,9.07
2019-05-20T05:19:39.127Z,9.13
2019-05-20T05:22:06.804Z,9.77
2019-05-20T05:24:34.658Z,8.90
2019-05-20T05:27:02.294Z,9.20
2019-05-20T05:29:29.943Z,9.17
2019-05-20T05:31:57.627Z,9.57
2019-05-20T05:34:25.347Z,8.63
2019-05-20T05:36:53.095Z,8.67
2019-05-20T05:39:20.860Z,9.23
2019-05-20T05:41:48.505Z,9.03
2019-05-20T05:44:16.256Z,9.30
2019-05-20T05:46:43.983Z,9.50
2019-05-20T05:49:11.639Z,9.60
2019-05-20T05:51:39.582Z,9.67
2019-05-20T05:54:07.287Z,8.80
2019-05-20T05:56:34.981Z,10.03
2019-05-20T05:59:02.804Z,9.17
2019-05-20T06:01:30.566Z,9.63
2019-05-20T06:03:58.247Z,9.33
2019-05-20T06:06:26.008Z,9.50
2019-05-20T06:08:53.694Z,10.57
2019-05-20T06:11:21.348Z,9.97
2019-05-20T06:13:49.059Z,9.67
2019-05-20T06:16:33.592Z,9.53
2019-05-20T06:18:46.393Z,9.77
2019-05-20T06:21:14.047Z,8.43
2019-05-20T06:23:41.769Z,8.67
2019-05-20T06:26:10.423Z,9.23
2019-05-20T06:28:38.089Z,9.37
2019-05-20T06:31:05.814Z,9.17
2019-05-20T06:33:33.527Z,9.47
2019-05-20T06:36:01.273Z,9.53
2019-05-20T06:38:45.301Z,8.90
2019-05-20T06:41:12.938Z,9.80
2019-05-20T06:43:40.786Z,9.17
2019-05-20T06:46:08.482Z,8.53
2019-05-20T06:48:36.281Z,8.70
2019-05-20T06:51:04.273Z,8.23
2019-05-20T06:53:31.940Z,9.17
2019-05-20T06:55:59.867Z,9.10
2019-05-20T06:58:27.743Z,8.57
2019-05-20T07:00:58.276Z,8.60
2019-05-20T07:03:26.134Z,8.13
2019-05-20T07:05:53.811Z,8.47
2019-05-20T07:08:22.491Z,8.20
2019-05-20T07:10:50.352Z,8.10
2019-05-20T07:13:18.028Z,8.30
2019-05-20T07:15:45.842Z,8.30
2019-05-20T07:18:13.606Z,8.57
2019-05-20T07:20:41.527Z,8.93
2019-05-20T07:23:09.231Z,8.30
2019-05-20T07:25:37.031Z,7.50
2019-05-20T07:28:04.905Z,7.60
2019-05-20T07:30:32.702Z,7.80
2019-05-20T07:33:00.526Z,7.93
2019-05-20T07:35:30.954Z,7.80
2019-05-20T07:37:58.908Z,7.43
2019-05-20T07:40:33.138Z,8.20
2019-05-20T07:43:02.397Z,7.90
2019-05-20T07:45:33.197Z,8.10
2019-05-20T07:48:03.387Z,8.53
2019-05-20T07:50:33.014Z,8.93
2019-05-20T07:53:00.964Z,8.00
2019-05-20T07:55:33.372Z,8.10
2019-05-20T07:58:05.716Z,7.93
2019-05-20T08:00:33.580Z,6.63
2019-05-20T08:03:01.448Z,7.10
2019-05-20T08:05:29.152Z,7.07
2019-05-20T08:07:56.936Z,7.83
2019-05-20T08:10:24.869Z,7.20
2019-05-20T08:12:52.589Z,7.40
2019-05-20T08:15:20.364Z,7.40
2019-05-20T08:17:48.097Z,7.60
2019-05-20T08:20:16.075Z,7.50
2019-05-20T08:22:43.742Z,7.67
2019-05-20T08:25:11.762Z,6.93
2019-05-20T08:27:39.597Z,8.00
2019-05-20T08:30:08.471Z,7.57
2019-05-20T08:32:36.161Z,8.50
2019-05-20T08:35:04.859Z,8.63
2019-05-20T08:37:44.905Z,7.80
2019-05-20T08:40:02.313Z,8.27
2019-05-20T08:42:30.226Z,8.03
2019-05-20T08:44:58.082Z,9.43
2019-05-20T08:47:25.952Z,8.97
2019-05-20T08:49:53.952Z,8.57
2019-05-20T08:52:21.827Z,10.37
2019-05-20T08:54:49.537Z,9.13
2019-05-20T08:57:17.373Z,9.73
2019-05-20T08:59:45.060Z,9.80
2019-05-20T09:02:12.814Z,10.23
2019-05-20T09:04:40.454Z,10.13
2019-05-20T09:07:08.117Z,9.77
2019-05-20T09:09:36.266Z,11.20
2019-05-20T09:12:06.808Z,11.53
2019-05-20T09:14:34.644Z,10.90
2019-05-20T09:17:02.583Z,10.40
2019-05-20T09:19:30.510Z,10.93
2019-05-20T09:21:58.225Z,11.07
2019-05-20T09:24:26.037Z,10.73
2019-05-20T09:26:54.902Z,11.10
2019-05-20T09:29:23.785Z,12.13
2019-05-20T09:31:51.574Z,10.63
2019-05-20T09:34:19.593Z,11.40
2019-05-20T09:36:48.505Z,11.87
2019-05-20T09:39:16.567Z,10.83
2019-05-20T09:41:44.476Z,11.43
2019-05-20T09:44:12.364Z,10.33
2019-05-20T09:46:40.128Z,12.10
2019-05-20T09:49:07.873Z,11.80
2019-05-20T09:51:35.830Z,11.60
2019-05-20T09:54:03.728Z,12.17
2019-05-20T09:56:31.536Z,12.03
2019-05-20T09:58:59.517Z,12.03
2019-05-20T10:01:27.205Z,12.27
2019-05-20T10:03:54.851Z,11.70
2019-05-20T10:06:22.558Z,12.50
2019-05-20T10:08:50.254Z,12.70
2019-05-20T10:11:17.941Z,13.23
2019-05-20T10:13:46.660Z,12.37
2019-05-20T10:16:14.302Z,12.43
2019-05-20T10:18:44.445Z,12.10
2019-05-20T10:21:12.090Z,12.13
2019-05-20T10:23:39.742Z,11.90
2019-05-20T10:26:07.494Z,13.13
2019-05-20T10:28:35.114Z,13.27
2019-05-20T10:31:02.893Z,12.90
2019-05-20T10:33:30.533Z,12.60
2019-05-20T10:35:58.157Z,12.77
2019-05-20T10:38:25.817Z,12.70
2019-05-20T10:40:53.495Z,11.83
2019-05-20T10:43:21.134Z,11.03
2019-05-20T10:45:48.765Z,12.20
2019-05-20T10:48:16.506Z,11.03
2019-05-20T10:50:44.149Z,11.27
2019-05-20T10:53:11.897Z,10.90
2019-05-20T10:55:39.576Z,11.13
2019-05-20T10:58:07.313Z,11.60
2019-05-20T11:00:35.017Z,10.80
2019-05-20T11:03:02.793Z,10.80
2019-05-20T11:05:30.625Z,10.07
2019-05-20T11:07:58.335Z,10.07
2019-05-20T11:10:25.972Z,10.17
2019-05-20T11:12:53.637Z,10.73
2019-05-20T11:15:21.295Z,10.07
2019-05-20T11:17:48.986Z,8.80
2019-05-20T11:20:18.704Z,9.70
2019-05-20T11:22:46.403Z,10.33
2019-05-20T11:25:14.458Z,11.00
2019-05-20T11:27:42.165Z,10.77
2019-05-20T11:30:12.226Z,9.77
2019-05-20T11:32:40.254Z,9.53
2019-05-20T11:35:08.139Z,9.40
2019-05-20T11:37:35.903Z,9.50
2019-05-20T11:40:05.326Z,9.40
2019-05-20T11:42:33.424Z,8.73
2019-05-20T11:45:01.100Z,9.83
2019-05-20T11:47:28.921Z,9.43
2019-05-20T11:49:56.716Z,9.67
2019-05-20T11:52:24.447Z,9.47
2019-05-20T11:54:52.261Z,9.77
2019-05-20T11:57:19.963Z,9.87
2019-05-20T11:59:47.688Z,10.40
2019-05-20T12:02:18.443Z,9.87
2019-05-20T12:04:46.101Z,10.60
2019-05-20T12:07:13.795Z,10.47
2019-05-20T12:09:49.559Z,11.50
2019-05-20T12:12:11.428Z,11.53
2019-05-20T12:14:39.085Z,10.97
2019-05-20T12:17:06.837Z,11.73
2019-05-20T12:19:34.494Z,11.20
2019-05-20T12:22:02.336Z,10.23
2019-05-20T12:24:30.004Z,11.67
2019-05-20T12:26:57.688Z,11.93
2019-05-20T12:29:25.474Z,20.60
2019-05-20T12:31:53.151Z,23.53
2019-05-20T12:34:20.781Z,23.40
2019-05-20T12:36:48.512Z,22.97
2019-05-20T12:39:16.218Z,23.47
2019-05-20T12:41:44.061Z,22.57
2019-05-20T12:44:13.245Z,22.70
2019-05-20T12:46:41.090Z,23.63
2019-05-20T12:49:08.846Z,24.60
2019-05-20T12:51:36.575Z,24.70
2019-05-20T12:54:04.258Z,25.10
2019-05-20T12:56:31.894Z,24.73
2019-05-20T12:58:59.650Z,23.70
2019-05-20T13:01:27.324Z,24.07
2019-05-20T13:03:54.990Z,26.43
2019-05-20T13:06:22.632Z,26.53
2019-05-20T13:08:50.318Z,24.47
2019-05-20T13:11:18.074Z,24.43
2019-05-20T13:13:45.989Z,26.10
2019-05-20T13:16:13.618Z,26.10
2019-05-20T13:18:54.931Z,27.13
2019-05-20T13:21:10.802Z,25.80
2019-05-20T13:23:38.457Z,25.73
2019-05-20T13:26:06.098Z,24.93
2019-05-20T13:28:33.760Z,23.60
2019-05-20T13:31:01.415Z,23.67
2019-05-20T13:33:29.067Z,25.40
2019-05-20T13:35:56.697Z,24.40
2019-05-20T13:38:24.473Z,24.23
2019-05-20T13:40:52.113Z,23.13
2019-05-20T13:43:19.773Z,22.63
2019-05-20T13:45:48.364Z,21.53
2019-05-20T13:48:16.321Z,21.70
2019-05-20T13:50:44.038Z,21.33
2019-05-20T13:53:11.982Z,21.10
2019-05-20T13:55:39.641Z,19.93
2019-05-20T13:58:07.321Z,18.97
2019-05-20T14:00:35.082Z,18.37
2019-05-20T14:03:02.736Z,18.40
2019-05-20T14:05:30.467Z,18.03
2019-05-20T14:07:58.257Z,19.20
2019-05-20T14:10:25.937Z,19.47
2019-05-20T14:12:53.628Z,19.70
2019-05-20T14:15:21.437Z,18.83
2019-05-20T14:17:49.122Z,20.03
2019-05-20T14:20:16.958Z,18.90
2019-05-20T14:22:44.723Z,17.80
2019-05-20T14:25:13.616Z,17.30
2019-05-20T14:27:41.417Z,17.70
2019-05-20T14:30:09.894Z,17.20
2019-05-20T14:32:37.734Z,16.07
2019-05-20T14:35:05.613Z,17.77
2019-05-20T14:37:33.405Z,16.93
2019-05-20T14:40:01.138Z,16.57
2019-05-20T14:42:28.798Z,16.40
2019-05-20T14:44:56.465Z,16.43
2019-05-20T14:47:24.299Z,14.17
2019-05-20T14:49:52.026Z,14.30
2019-05-20T14:52:19.730Z,14.93
2019-05-20T14:54:47.398Z,16.00
2019-05-20T14:57:15.073Z,16.23
2019-05-20T14:59:42.753Z,13.90
2019-05-20T15:02:10.433Z,14.83
2019-05-20T15:04:38.159Z,15.27
2019-05-20T15:07:05.813Z,14.20
2019-05-20T15:09:33.441Z,13.10
2019-05-20T15:12:01.173Z,13.40
2019-05-20T15:14:28.824Z,13.70
2019-05-20T15:16:56.521Z,13.57
2019-05-20T15:19:24.231Z,12.40
2019-05-20T15:21:51.964Z,12.50
2019-05-20T15:24:19.638Z,12.30
2019-05-20T15:26:47.321Z,11.90
2019-05-20T15:29:27.478Z,11.10
2019-05-20T15:31:44.661Z,12.33
2019-05-20T15:34:12.290Z,11.60
2019-05-20T15:36:42.025Z,10.93
2019-05-20T15:39:09.855Z,11.80
2019-05-20T15:41:37.525Z,11.63
2019-05-20T15:44:05.214Z,10.73
2019-05-20T15:46:33.077Z,11.40
2019-05-20T15:49:00.790Z,11.30
2019-05-20T15:51:29.661Z,11.00
2019-05-20T15:53:57.378Z,11.93
2019-05-20T15:56:25.091Z,12.33
2019-05-20T15:58:52.753Z,12.10
2019-05-20T16:01:21.165Z,12.00
2019-05-20T16:03:51.532Z,11.60
2019-05-20T16:06:18.984Z,11.10
2019-05-20T16:08:46.757Z,11.20
2019-05-20T16:11:14.570Z,11.10
2019-05-20T16:13:42.412Z,11.10
2019-05-20T16:16:12.923Z,10.53
2019-05-20T16:18:39.755Z,11.73
2019-05-20T16:21:08.552Z,11.03
2019-05-20T16:23:36.391Z,11.47
2019-05-20T16:26:04.480Z,10.97
2019-05-20T16:28:32.259Z,10.83
2019-05-20T16:30:59.914Z,11.40
2019-05-20T16:33:27.737Z,10.93
2019-05-20T16:35:55.474Z,11.97
2019-05-20T16:38:23.169Z,12.13
2019-05-20T16:40:50.948Z,12.97
2019-05-20T16:43:18.819Z,12.80
2019-05-20T16:45:47.627Z,13.73
2019-05-20T16:48:15.596Z,13.23
2019-05-20T16:50:43.229Z,19.07
2019-05-20T16:53:11.997Z,21.83
2019-05-20T16:55:39.757Z,20.53
2019-05-20T16:58:07.569Z,23.80
2019-05-20T17:00:35.586Z,21.13
2019-05-20T17:03:03.459Z,24.00
2019-05-20T17:05:31.178Z,23.83
2019-05-20T17:07:58.973Z,23.73
2019-05-20T17:10:26.634Z,23.73
2019-05-20T17:12:54.391Z,24.03
2019-05-20T17:15:23.923Z,24.80
2019-05-20T17:17:51.725Z,24.47
2019-05-20T17:20:19.415Z,25.30
2019-05-20T17:22:47.155Z,26.10
2019-05-20T17:25:15.056Z,25.47
2019-05-20T17:27:43.721Z,25.87
2019-05-20T17:30:11.737Z,26.57
2019-05-20T17:32:39.707Z,26.70
2019-05-20T17:35:07.621Z,26.93
2019-05-20T17:37:35.666Z,26.27
2019-05-20T17:40:06.097Z,27.63
2019-05-20T17:42:33.956Z,27.07
2019-05-20T17:45:01.817Z,29.30
2019-05-20T17:47:29.670Z,28.90
2019-05-20T17:49:58.342Z,27.10
2019-05-20T17:52:26.098Z,28.67
2019-05-20T17:54:54.485Z,28.83
2019-05-20T17:57:22.346Z,30.70
2019-05-20T17:59:50.114Z,27.57
2019-05-20T18:02:17.795Z,28.37
2019-05-20T18:04:45.581Z,29.50
2019-05-20T18:07:13.340Z,28.03
2019-05-20T18:09:45.899Z,30.83
2019-05-20T18:12:13.614Z,29.07
2019-05-20T18:14:41.438Z,29.70
2019-05-20T18:17:09.219Z,28.90
2019-05-20T18:19:36.899Z,29.43
2019-05-20T18:22:04.710Z,30.60
2019-05-20T18:24:32.441Z,31.57
2019-05-20T18:27:00.189Z,29.70
2019-05-20T18:29:27.936Z,30.90
2019-05-20T18:31:55.706Z,31.10
2019-05-20T18:34:23.393Z,31.47
2019-05-20T18:36:51.113Z,32.80
2019-05-20T18:39:18.871Z,32.53
2019-05-20T18:41:46.741Z,34.53
2019-05-20T18:44:14.428Z,35.20
2019-05-20T18:46:42.200Z,33.67
2019-05-20T18:49:09.941Z,35.37
2019-05-20T18:51:37.601Z,36.97
2019-05-20T18:54:05.533Z,34.73
2019-05-20T18:56:33.337Z,35.53
2019-05-20T18:59:01.201Z,35.83
2019-05-20T19:01:28.873Z,35.30
2019-05-20T19:03:56.812Z,35.20
2019-05-20T19:06:24.654Z,34.73
2019-05-20T19:08:52.443Z,36.40
2019-05-20T19:11:20.172Z,34.17
2019-05-20T19:13:47.932Z,36.63
2019-05-20T19:16:15.702Z,36.93
2019-05-20T19:18:43.446Z,34.53
2019-05-20T19:21:11.131Z,35.53
2019-05-20T19:23:38.841Z,34.10
2019-05-20T19:26:06.576Z,34.20
2019-05-20T19:28:34.363Z,35.27
2019-05-20T19:31:02.050Z,35.97
2019-05-20T19:33:30.135Z,35.50
2019-05-20T19:35:57.911Z,36.50
2019-05-20T19:38:25.714Z,33.57
2019-05-20T19:40:53.519Z,35.03
2019-05-20T19:43:21.351Z,34.90
2019-05-20T19:45:49.121Z,34.60
2019-05-20T19:48:18.120Z,34.47
2019-05-20T19:50:46.027Z,35.27
2019-05-20T19:53:14.214Z,35.60
2019-05-20T19:55:41.937Z,34.40
2019-05-20T19:58:09.883Z,36.07
2019-05-20T20:00:37.758Z,35.53
2019-05-20T20:03:05.572Z,35.70
2019-05-20T20:05:33.524Z,35.27
2019-05-20T20:08:01.434Z,35.17
2019-05-20T20:10:29.333Z,36.77
2019-05-20T20:12:57.031Z,36.57
2019-05-20T20:15:24.763Z,37.83
2019-05-20T20:17:52.459Z,37.07
2019-05-20T20:20:20.129Z,38.07
2019-05-20T20:22:47.783Z,37.17
2019-05-20T20:25:16.719Z,36.33
2019-05-20T20:27:44.783Z,36.17
2019-05-20T20:30:12.788Z,36.93
2019-05-20T20:32:40.456Z,36.80
2019-05-20T20:35:08.347Z,37.87
2019-05-20T20:37:35.965Z,37.10
2019-05-20T20:40:03.990Z,35.70
2019-05-20T20:42:31.825Z,36.57
2019-05-20T20:44:59.490Z,36.67
2019-05-20T20:47:40.922Z,35.47
2019-05-20T20:49:56.842Z,35.73
2019-05-20T20:52:24.510Z,34.73
2019-05-20T20:54:52.196Z,36.83
2019-05-20T20:57:19.833Z,35.63
2019-05-20T20:59:50.201Z,34.90
2019-05-20T21:02:17.095Z,36.43
2019-05-20T21:04:44.765Z,36.07
2019-05-20T21:07:12.464Z,36.13
2019-05-20T21:09:40.089Z,37.90
2019-05-20T21:12:07.740Z,37.70
2019-05-20T21:14:35.399Z,35.47
2019-05-20T21:17:03.317Z,35.87
2019-05-20T21:19:31.035Z,35.63
2019-05-20T21:21:58.697Z,34.90
2019-05-20T21:24:26.320Z,35.77
2019-05-20T21:26:53.997Z,36.60
2019-05-20T21:29:21.649Z,35.70
2019-05-20T21:31:49.341Z,33.60
2019-05-20T21:34:16.983Z,36.00
2019-05-20T21:36:47.590Z,34.17
2019-05-20T21:39:14.217Z,35.30
2019-05-20T21:41:41.871Z,36.10
2019-05-20T21:44:09.569Z,35.30
2019-05-20T21:47:10.578Z,34.43
2019-05-20T21:49:38.250Z,34.67
2019-05-20T21:52:05.909Z,35.07
2019-05-20T21:54:33.620Z,35.60
2019-05-20T21:57:01.311Z,34.40
2019-05-20T21:59:28.983Z,35.30
2019-05-20T22:01:56.609Z,34.00
2019-05-20T22:04:24.273Z,34.20
2019-05-20T22:06:51.970Z,32.63
2019-05-20T22:09:19.641Z,34.57
2019-05-20T22:11:47.311Z,32.07
2019-05-20T22:14:14.930Z,33.07
2019-05-20T22:16:42.604Z,33.77
2019-05-20T22:19:10.373Z,32.53
2019-05-20T22:21:57.520Z,32.03
2019-05-20T22:24:25.250Z,34.57
2019-05-20T22:26:52.907Z,33.23
2019-05-20T22:29:20.519Z,35.37
2019-05-20T22:31:48.177Z,31.97
2019-05-20T22:34:15.810Z,33.37
2019-05-20T22:36:43.654Z,32.27
2019-05-20T22:39:11.268Z,32.90
2019-05-20T22:41:38.993Z,32.90
2019-05-20T22:44:06.653Z,33.07
2019-05-20T22:46:34.298Z,32.33
2019-05-20T22:49:01.993Z,31.17
2019-05-20T22:51:29.653Z,31.27
2019-05-20T22:53:57.292Z,31.33
2019-05-20T22:56:24.968Z,31.57
2019-05-20T22:58:52.665Z,32.27
2019-05-20T23:01:20.318Z,29.77
2019-05-20T23:03:56.156Z,30.87
2019-05-20T23:06:17.445Z,31.97
2019-05-20T23:08:45.120Z,29.50
2019-05-20T23:11:12.721Z,32.43
2019-05-20T23:13:40.376Z,33.20
2019-05-20T23:16:08.018Z,32.77
2019-05-20T23:18:35.750Z,32.77
2019-05-20T23:21:03.451Z,31.33
2019-05-20T23:23:31.106Z,32.90
2019-05-20T23:25:58.717Z,33.30
2019-05-20T23:28:26.381Z,35.17
2019-05-20T23:30:54.014Z,33.90
2019-05-20T23:33:21.655Z,34.43
2019-05-20T23:35:49.278Z,35.13
2019-05-20T23:38:16.955Z,32.80
2019-05-20T23:40:44.572Z,33.33
2019-05-20T23:43:12.245Z,33.13
2019-05-20T23:45:39.845Z,36.63
2019-05-20T23:48:07.581Z,35.20
2019-05-20T23:50:35.191Z,33.83
2019-05-20T23:53:02.834Z,36.57
2019-05-20T23:55:30.438Z,34.07
2019-05-20T23:57:58.079Z,35.93
